Time;durP1;ratioP1;P1;durP2;ratioP2;P2;SDS_P1;SDS_P2;PMS_P1;PMS_P2;Temp;Humidity;BMP_temperature;BMP_pressure;BME280_temperature;BME280_humidity;BME280_pressure;Samples;Min_cycle;Max_cycle;Signal;HPM_P1;HPM_P2
2023/03/15 00:00:06;;;;;;;7.18;3.70;;;;;;;-2.12;100.00;100861.25;5008144;28;20476;-86
2023/03/15 00:02:32;;;;;;;8.23;3.90;;;;;;;-2.13;100.00;100855.13;4990337;28;20057;-83
2023/03/15 00:05:01;;;;;;;7.97;4.43;;;;;;;-2.09;100.00;100856.66;5008127;28;20030;-84
2023/03/15 00:07:29;;;;;;;9.05;4.07;;;;;;;-2.04;100.00;100843.19;5007058;28;20042;-88
2023/03/15 00:09:55;;;;;;;8.32;4.22;;;;;;;-1.88;100.00;100849.25;5005693;28;20023;-86
2023/03/15 00:12:24;;;;;;;7.60;3.75;;;;;;;-1.71;100.00;100847.34;5008679;28;20034;-83
2023/03/15 00:14:52;;;;;;;5.28;3.63;;;;;;;-1.67;100.00;100830.38;5008406;28;20030;-86
2023/03/15 00:17:18;;;;;;;7.00;2.85;;;;;;;-1.68;100.00;100818.16;4991974;28;20092;-85
2023/03/15 00:19:53;;;;;;;2.88;1.85;;;;;;;-1.44;100.00;100848.25;4989054;28;20034;-83
2023/03/15 00:22:22;;;;;;;8.50;4.07;;;;;;;-1.41;100.00;100840.13;4975178;28;20038;-84
2023/03/15 00:24:57;;;;;;;6.18;3.20;;;;;;;-1.42;100.00;100820.00;4990803;28;20034;-84
2023/03/15 00:27:23;;;;;;;4.95;2.70;;;;;;;-1.37;100.00;100825.81;5000261;28;20023;-86
2023/03/15 00:29:49;;;;;;;9.00;4.55;;;;;;;-1.35;100.00;100831.00;4970144;28;20065;-87
2023/03/15 00:32:15;;;;;;;6.45;3.08;;;;;;;-1.35;100.00;100821.31;4985684;28;20392;-85
2023/03/15 00:34:40;;;;;;;4.65;2.65;;;;;;;-1.37;100.00;100817.06;4968049;28;20030;-84
2023/03/15 00:37:06;;;;;;;5.95;3.30;;;;;;;-1.36;100.00;100814.31;5002210;28;20022;-85
2023/03/15 00:39:36;;;;;;;12.45;3.97;;;;;;;-1.37;100.00;100817.91;5001395;28;20077;-87
2023/03/15 00:42:08;;;;;;;5.63;3.47;;;;;;;-1.27;100.00;100819.94;4985081;28;20066;-85
2023/03/15 00:44:33;;;;;;;7.93;4.05;;;;;;;-1.20;100.00;100813.34;4968288;28;20117;-89
2023/03/15 00:46:59;;;;;;;8.82;3.10;;;;;;;-1.12;100.00;100816.34;4999375;28;20057;-86
2023/03/15 00:49:25;;;;;;;4.68;2.85;;;;;;;-0.99;100.00;100824.31;4998922;28;20038;-85
2023/03/15 00:51:54;;;;;;;13.23;4.63;;;;;;;-0.84;100.00;100822.47;4981326;28;20041;-88
2023/03/15 00:54:22;;;;;;;6.40;3.90;;;;;;;-0.71;100.00;100820.72;4964993;28;20038;-85
2023/03/15 00:56:48;;;;;;;9.70;4.57;;;;;;;-0.62;100.00;100822.72;4996524;28;20092;-85
2023/03/15 00:59:14;;;;;;;5.47;2.85;;;;;;;-0.62;100.00;100817.44;4996824;28;20050;-91
2023/03/15 01:01:43;;;;;;;10.05;3.75;;;;;;;-0.56;100.00;100810.91;4983686;28;20058;-87
2023/03/15 01:04:13;;;;;;;6.15;3.25;;;;;;;-0.52;100.00;100810.59;5006922;28;20026;-90
2023/03/15 01:06:41;;;;;;;11.40;4.55;;;;;;;-0.52;100.00;100791.25;4980509;28;20027;-86
2023/03/15 01:09:08;;;;;;;13.27;4.47;;;;;;;-0.45;100.00;100806.59;4995921;28;20532;-91
2023/03/15 01:11:34;;;;;;;10.98;4.70;;;;;;;-0.44;100.00;100815.38;4947477;28;20112;-87
2023/03/15 01:14:00;;;;;;;11.50;5.10;;;;;;;-0.41;100.00;100817.78;4995397;28;20110;-85
2023/03/15 01:16:31;;;;;;;12.75;5.20;;;;;;;-0.41;100.00;100809.03;4979121;28;20517;-86
2023/03/15 01:18:56;;;;;;;12.38;5.15;;;;;;;-0.37;100.00;100814.00;4978740;28;20073;-89
2023/03/15 01:21:23;;;;;;;10.13;5.20;;;;;;;-0.34;100.00;100819.06;4962757;28;20065;-84
2023/03/15 01:23:49;;;;;;;11.57;5.18;;;;;;;-0.29;100.00;100818.75;4962541;28;20037;-84
2023/03/15 01:26:16;;;;;;;10.70;4.90;;;;;;;-0.34;100.00;100805.88;4979014;28;20030;-86
2023/03/15 01:28:41;;;;;;;11.23;5.35;;;;;;;-0.26;100.00;100810.63;4962580;28;20129;-88
2023/03/15 01:31:17;;;;;;;8.35;4.63;;;;;;;-0.28;100.00;100791.38;4978440;28;20038;-83
2023/03/15 01:33:42;;;;;;;9.93;4.35;;;;;;;-0.28;100.00;100786.94;4994181;28;20026;-86
2023/03/15 01:36:09;;;;;;;9.73;5.00;;;;;;;-0.20;100.00;100804.06;4995813;28;20030;-86
2023/03/15 01:38:35;;;;;;;10.85;4.97;;;;;;;-0.23;100.00;100795.41;4995701;28;20038;-89
2023/03/15 01:41:01;;;;;;;7.72;4.15;;;;;;;-0.22;100.00;100788.31;4978606;28;20074;-83
2023/03/15 01:43:28;;;;;;;14.00;5.30;;;;;;;-0.19;100.00;100779.34;4995487;28;20470;-90
2023/03/15 01:46:15;;;;;;;10.48;5.00;;;;;;;-0.15;100.00;100781.66;4978404;28;20037;-93
2023/03/15 01:48:50;;;;;;;9.35;5.00;;;;;;;-0.13;100.00;100768.31;4995579;28;20084;-84
2023/03/15 01:51:34;;;;;;;10.75;5.25;;;;;;;-0.06;100.00;100769.59;4995181;28;20069;-88
2023/03/15 01:54:11;;;;;;;10.23;5.57;;;;;;;0.08;100.00;100773.91;4979815;28;20126;-86
2023/03/15 01:56:42;;;;;;;10.23;5.13;;;;;;;0.22;100.00;100764.06;4995116;28;20026;-87
2023/03/15 01:59:14;;;;;;;8.35;4.32;;;;;;;0.35;100.00;100753.44;4961714;28;20045;-88
2023/03/15 02:01:44;;;;;;;13.60;5.17;;;;;;;0.52;100.00;100743.44;4977599;28;20058;-87
2023/03/15 02:04:14;;;;;;;11.63;4.50;;;;;;;0.67;100.00;100742.34;4993630;28;20263;-87
2023/03/15 02:06:45;;;;;;;10.50;4.65;;;;;;;0.74;100.00;100726.84;4961715;28;20093;-87
2023/03/15 02:09:13;;;;;;;14.25;5.78;;;;;;;0.83;100.00;100734.94;4945990;28;20046;-85
2023/03/15 02:11:42;;;;;;;8.73;4.80;;;;;;;0.90;100.00;100731.84;4962055;28;20038;-87
2023/03/15 02:14:10;;;;;;;9.73;4.28;;;;;;;0.98;100.00;100725.03;4961545;28;20042;-88
2023/03/15 02:16:37;;;;;;;10.48;4.57;;;;;;;1.04;100.00;100724.56;4961848;28;20492;-88
2023/03/15 02:19:05;;;;;;;7.47;4.10;;;;;;;1.07;100.00;100718.19;4981352;28;20034;-86
2023/03/15 02:22:13;;;;;;;13.02;4.70;;;;;;;1.10;100.00;100712.66;4984194;28;20037;-86
2023/03/15 02:24:51;;;;;;;12.27;4.80;;;;;;;1.21;100.00;100725.09;4998344;28;20046;-85
2023/03/15 02:27:43;;;;;;;8.38;4.72;;;;;;;1.26;100.00;100723.78;4994537;28;20030;-87
2023/03/15 02:30:09;;;;;;;10.77;4.60;;;;;;;1.19;100.00;100696.09;4973471;28;20443;-89
2023/03/15 02:32:35;;;;;;;11.05;4.40;;;;;;;1.32;100.00;100714.50;4976839;28;20038;-89
2023/03/15 02:35:00;;;;;;;11.00;4.95;;;;;;;1.30;100.00;100713.81;4976932;28;20033;-86
2023/03/15 02:37:26;;;;;;;9.48;4.75;;;;;;;1.30;100.00;100704.06;4993854;28;20181;-87
2023/03/15 02:39:52;;;;;;;11.82;5.10;;;;;;;1.33;100.00;100705.63;4961111;28;20030;-89
2023/03/15 02:42:18;;;;;;;9.15;4.55;;;;;;;1.33;100.00;100694.19;4977240;28;20034;-90
2023/03/15 02:44:45;;;;;;;6.43;3.67;;;;;;;1.35;100.00;100690.47;4993343;28;20034;-88
2023/03/15 02:47:26;;;;;;;11.52;5.00;;;;;;;1.41;100.00;100686.50;4944931;28;20421;-87
2023/03/15 02:49:52;;;;;;;8.40;4.72;;;;;;;1.44;100.00;100681.78;4976818;28;20030;-90
2023/03/15 02:52:19;;;;;;;7.55;3.75;;;;;;;1.46;100.00;100681.69;4945317;28;20543;-83
2023/03/15 02:54:45;;;;;;;9.32;5.32;;;;;;;1.36;100.00;100654.22;4961396;28;20085;-84
2023/03/15 02:57:12;;;;;;;10.77;4.20;;;;;;;1.49;100.00;100673.50;4994201;28;20030;-86
2023/03/15 02:59:38;;;;;;;7.20;4.30;;;;;;;1.51;100.00;100669.75;4947470;28;20038;-86
2023/03/15 03:02:04;;;;;;;11.57;4.30;;;;;;;1.54;100.00;100664.22;4997116;28;20061;-81
2023/03/15 03:04:30;;;;;;;19.13;4.22;;;;;;;1.54;100.00;100664.22;4997976;28;20456;-87
2023/03/15 03:06:56;;;;;;;9.15;4.07;;;;;;;1.55;100.00;100662.41;4980382;28;20058;-83
2023/03/15 03:09:22;;;;;;;6.75;3.75;;;;;;;1.52;100.00;100660.00;4997010;28;20038;-86
2023/03/15 03:11:48;;;;;;;9.43;3.80;;;;;;;1.51;100.00;100651.22;4980993;28;20030;-85
2023/03/15 03:14:14;;;;;;;13.02;4.15;;;;;;;1.56;100.00;100656.13;4980844;28;20076;-88
2023/03/15 03:16:41;;;;;;;14.38;4.20;;;;;;;1.58;100.00;100654.22;4980309;28;20113;-89
2023/03/15 03:19:13;;;;;;;8.88;4.68;;;;;;;1.60;100.00;100647.00;4980607;28;20042;-87
2023/03/15 03:21:42;;;;;;;5.78;3.45;;;;;;;1.60;100.00;100641.69;4965019;28;20054;-84
2023/03/15 03:24:08;;;;;;;6.28;3.67;;;;;;;1.63;100.00;100646.75;4997375;28;20030;-85
2023/03/15 03:26:34;;;;;;;8.90;4.30;;;;;;;1.66;100.00;100649.16;4965501;28;20392;-85
2023/03/15 03:28:59;;;;;;;7.32;3.33;;;;;;;1.67;100.00;100648.19;4997645;28;20113;-86
2023/03/15 03:31:26;;;;;;;10.57;4.10;;;;;;;1.70;100.00;100650.59;4997753;28;20488;-86
2023/03/15 03:33:52;;;;;;;11.13;5.10;;;;;;;1.68;100.00;100655.16;4979619;28;20050;-88
2023/03/15 03:36:18;;;;;;;8.35;3.72;;;;;;;1.66;100.00;100643.84;4997837;28;20034;-89
2023/03/15 03:38:45;;;;;;;8.80;3.80;;;;;;;1.62;100.00;100642.41;4996545;28;20034;-88
2023/03/15 03:41:12;;;;;;;6.35;3.42;;;;;;;1.54;100.00;100634.22;4964311;28;20604;-86
2023/03/15 03:43:38;;;;;;;8.43;4.00;;;;;;;1.56;100.00;100645.53;4963806;28;20030;-86
2023/03/15 03:46:04;;;;;;;7.93;3.45;;;;;;;1.55;100.00;100635.91;4997899;28;20504;-90
2023/03/15 03:48:30;;;;;;;6.25;3.28;;;;;;;1.56;100.00;100634.94;4980653;28;20473;-86
2023/03/15 03:50:56;;;;;;;5.88;3.15;;;;;;;1.51;100.00;100630.00;4996101;28;20039;-89
2023/03/15 03:53:22;;;;;;;7.97;3.60;;;;;;;1.45;100.00;100621.69;4996246;28;20113;-85
2023/03/15 03:55:48;;;;;;;8.90;3.50;;;;;;;1.52;100.00;100631.69;4995878;28;20074;-89
2023/03/15 03:58:13;;;;;;;6.78;3.22;;;;;;;1.50;100.00;100625.66;4996694;28;20022;-85
2023/03/15 04:00:40;;;;;;;5.43;3.28;;;;;;;1.52;100.00;100625.56;4996023;28;20026;-84
2023/03/15 04:03:06;;;;;;;6.18;3.58;;;;;;;1.57;100.00;100627.84;4964066;28;20044;-89
2023/03/15 04:05:32;;;;;;;8.05;3.10;;;;;;;1.61;100.00;100621.31;4997429;28;20089;-85
2023/03/15 04:07:58;;;;;;;3.95;2.47;;;;;;;1.64;100.00;100621.94;4965750;28;20117;-83
2023/03/15 04:10:25;;;;;;;4.65;3.08;;;;;;;1.70;100.00;100618.78;4996888;28;20385;-86
2023/03/15 04:12:55;;;;;;;6.82;3.10;;;;;;;1.76;100.00;100609.50;4995890;28;20030;-87
2023/03/15 04:15:22;;;;;;;6.47;3.00;;;;;;;1.69;100.00;100589.75;4947408;28;20035;-89
2023/03/15 04:17:54;;;;;;;4.82;2.05;;;;;;;1.73;100.00;100596.50;4979608;28;20034;-86
2023/03/15 04:20:25;;;;;;;1.98;1.33;;;;;;;1.78;100.00;100598.78;4995880;28;20196;-89
2023/03/15 04:22:50;;;;;;;4.70;1.90;;;;;;;1.74;100.00;100596.38;4995218;28;20397;-88
2023/03/15 04:25:17;;;;;;;3.70;2.13;;;;;;;1.82;100.00;100600.22;4962843;28;20042;-86
2023/03/15 04:27:42;;;;;;;5.78;1.73;;;;;;;1.75;100.00;100581.31;4979071;28;20038;-85
2023/03/15 04:30:09;;;;;;;6.60;1.52;;;;;;;1.86;100.00;100583.94;4979114;28;20030;-89
2023/03/15 04:32:34;;;;;;;3.65;2.42;;;;;;;1.90;100.00;100585.38;4963063;28;20033;-88
2023/03/15 04:35:01;;;;;;;4.45;2.50;;;;;;;2.01;100.00;100588.97;4994735;28;20031;-88
2023/03/15 04:37:28;;;;;;;2.25;1.48;;;;;;;1.98;100.00;100568.84;4979058;28;20030;-89
2023/03/15 04:39:53;;;;;;;4.63;1.73;;;;;;;2.11;100.00;100576.63;4962956;28;20030;-86
2023/03/15 04:42:19;;;;;;;1.83;0.95;;;;;;;2.16;100.00;100580.59;4996128;28;20026;-88
2023/03/15 04:44:45;;;;;;;1.98;1.48;;;;;;;2.18;100.00;100573.34;4995879;28;20496;-83
2023/03/15 04:47:11;;;;;;;0.50;0.50;;;;;;;2.19;100.00;100566.25;4994742;28;20434;-88
2023/03/15 04:49:37;;;;;;;0.40;0.40;;;;;;;2.17;100.00;100547.81;4994929;28;20062;-86
2023/03/15 04:52:03;;;;;;;0.40;0.40;;;;;;;2.23;100.00;100550.94;4995833;28;20023;-88
2023/03/15 04:54:28;;;;;;;0.40;0.40;;;;;;;2.23;100.00;100554.41;4995392;28;20030;-85
2023/03/15 04:56:54;;;;;;;0.40;0.40;;;;;;;2.23;100.00;100545.63;4962728;28;20559;-85
2023/03/15 04:59:20;;;;;;;0.40;0.40;;;;;;;2.25;100.00;100549.84;4995935;28;20469;-88
2023/03/15 05:01:46;;;;;;;0.40;0.40;;;;;;;2.19;100.00;100527.28;4994908;28;20038;-85
2023/03/15 05:04:12;;;;;;;0.40;0.40;;;;;;;2.25;100.00;100535.69;4962346;28;20080;-85
2023/03/15 05:06:38;;;;;;;0.40;0.40;;;;;;;2.24;100.00;100524.25;4994697;28;20385;-88
2023/03/15 05:09:03;;;;;;;0.50;0.50;;;;;;;2.27;100.00;100536.44;4978308;28;20038;-84
2023/03/15 05:11:30;;;;;;;0.40;0.40;;;;;;;2.25;100.00;100527.75;4994707;28;20030;-85
2023/03/15 05:13:55;;;;;;;0.40;0.40;;;;;;;2.26;100.00;100517.00;4977766;28;20073;-84
2023/03/15 05:16:21;;;;;;;0.40;0.40;;;;;;;2.25;100.00;100520.66;4994481;28;20505;-84
2023/03/15 05:18:47;;;;;;;0.40;0.40;;;;;;;2.23;100.00;100516.44;4994338;28;20046;-87
2023/03/15 05:21:13;;;;;;;0.40;0.40;;;;;;;2.19;100.00;100502.56;4994322;28;20065;-85
2023/03/15 05:23:39;;;;;;;0.40;0.40;;;;;;;2.20;100.00;100502.47;4994246;28;20038;-84
2023/03/15 05:26:04;;;;;;;0.30;0.30;;;;;;;2.19;100.00;100500.75;4993992;28;20057;-84
2023/03/15 05:28:30;;;;;;;0.40;0.40;;;;;;;2.25;100.00;100509.19;4994265;28;20026;-85
2023/03/15 05:30:56;;;;;;;0.40;0.40;;;;;;;2.25;100.00;100495.91;4994763;28;20540;-87
2023/03/15 05:33:23;;;;;;;0.40;0.40;;;;;;;2.28;100.00;100485.06;4994105;28;20108;-87
2023/03/15 05:35:52;;;;;;;0.40;0.40;;;;;;;2.25;100.00;100464.94;4994251;28;20494;-87
2023/03/15 05:38:20;;;;;;;0.73;0.73;;;;;;;2.30;100.00;100459.22;4978328;28;20038;-84
2023/03/15 05:40:46;;;;;;;0.40;0.40;;;;;;;2.34;100.00;100460.66;4993566;28;20037;-86
2023/03/15 05:43:12;;;;;;;0.40;0.40;;;;;;;2.36;100.00;100453.41;4995041;28;20026;-83
2023/03/15 05:45:38;;;;;;;0.40;0.40;;;;;;;2.40;100.00;100445.03;4977648;28;20489;-85
2023/03/15 05:48:04;;;;;;;0.40;0.40;;;;;;;2.40;100.00;100438.91;4995142;28;20029;-88
2023/03/15 05:50:30;;;;;;;0.40;0.40;;;;;;;2.42;100.00;100432.50;4977574;28;20424;-88
2023/03/15 05:52:56;;;;;;;0.40;0.40;;;;;;;2.44;100.00;100423.59;4945673;28;20170;-87
2023/03/15 05:55:22;;;;;;;0.40;0.40;;;;;;;2.48;100.00;100422.31;4995087;28;20074;-84
2023/03/15 05:57:48;;;;;;;0.40;0.40;;;;;;;2.52;100.00;100421.94;4977530;28;20128;-85
2023/03/15 06:00:15;;;;;;;0.40;0.40;;;;;;;2.57;100.00;100426.84;4993655;28;20595;-87
2023/03/15 06:02:45;;;;;;;0.40;0.40;;;;;;;2.60;100.00;100423.94;4961433;28;20125;-85
2023/03/15 06:05:11;;;;;;;0.40;0.40;;;;;;;2.61;100.00;100410.50;4961204;28;20038;-89
2023/03/15 06:07:37;;;;;;;0.50;0.50;;;;;;;2.62;100.00;100401.59;4994313;28;20137;-84
2023/03/15 06:10:10;;;;;;;0.32;0.32;;;;;;;2.70;100.00;100408.91;4977197;28;20090;-85
2023/03/15 06:12:36;;;;;;;0.40;0.40;;;;;;;2.70;100.00;100389.44;4977846;28;20069;-85
2023/03/15 06:15:02;;;;;;;0.40;0.40;;;;;;;2.64;100.00;100369.59;4992801;28;20026;-85
2023/03/15 06:17:28;;;;;;;0.40;0.40;;;;;;;2.67;100.00;100366.66;4976936;28;20030;-89
2023/03/15 06:19:54;;;;;;;0.40;0.40;;;;;;;2.71;100.00;100367.25;4979882;28;20049;-85
2023/03/15 06:22:19;;;;;;;0.40;0.40;;;;;;;2.85;100.00;100383.63;4994738;28;20035;-84
2023/03/15 06:24:45;;;;;;;0.40;0.40;;;;;;;2.89;100.00;100378.91;4992686;28;20035;-85
2023/03/15 06:27:11;;;;;;;0.40;0.40;;;;;;;2.88;100.00;100368.41;4995663;28;20033;-86
2023/03/15 06:29:36;;;;;;;0.40;0.40;;;;;;;2.90;100.00;100369.13;4993976;28;20481;-87
2023/03/15 06:32:03;;;;;;;0.40;0.40;;;;;;;2.98;100.00;100364.81;4995729;28;20058;-88
2023/03/15 06:34:29;;;;;;;0.40;0.40;;;;;;;3.15;100.00;100360.66;4945472;28;20374;-88
2023/03/15 06:36:54;;;;;;;0.50;0.50;;;;;;;3.21;100.00;100354.78;4977153;28;20073;-86
2023/03/15 06:39:21;;;;;;;0.40;0.40;;;;;;;3.30;100.00;100347.78;4993133;28;20038;-85
2023/03/15 06:41:46;;;;;;;0.47;0.47;;;;;;;3.33;100.00;100342.19;4992551;28;20085;-83
2023/03/15 06:44:12;;;;;;;0.50;0.50;;;;;;;3.48;100.00;100356.75;4993156;28;20049;-84
2023/03/15 06:46:40;;;;;;;0.40;0.40;;;;;;;3.55;100.00;100351.72;4994228;28;20034;-87
2023/03/15 06:49:06;;;;;;;0.40;0.40;;;;;;;3.59;100.00;100346.97;4976968;28;20085;-84
2023/03/15 06:51:31;;;;;;;0.40;0.40;;;;;;;3.58;100.00;100334.66;4976693;28;20485;-87
2023/03/15 06:53:57;;;;;;;0.40;0.40;;;;;;;3.53;100.00;100337.72;4994016;28;20034;-85
2023/03/15 06:56:22;;;;;;;0.40;0.40;;;;;;;3.57;100.00;100332.97;4994450;28;20039;-89
2023/03/15 06:58:48;;;;;;;0.40;0.40;;;;;;;3.48;100.00;100327.50;4994093;28;20061;-89
2023/03/15 07:01:14;;;;;;;0.40;0.40;;;;;;;3.54;100.00;100323.44;4994007;28;20030;-85
2023/03/15 07:03:40;;;;;;;0.40;0.40;;;;;;;3.55;100.00;100324.28;4992674;28;20470;-87
2023/03/15 07:06:06;;;;;;;0.40;0.40;;;;;;;3.55;100.00;100319.81;4992680;28;20034;-85
2023/03/15 07:08:32;;;;;;;0.40;0.40;;;;;;;3.52;100.00;100315.63;4993527;28;20165;-89
2023/03/15 07:10:58;;;;;;;0.40;0.40;;;;;;;3.58;100.00;100321.38;4960428;28;20412;-89
2023/03/15 07:13:23;;;;;;;0.40;0.40;;;;;;;3.62;100.00;100312.09;4976355;28;20030;-85
2023/03/15 07:15:53;;;;;;;0.40;0.40;;;;;;;3.57;100.00;100290.44;4993841;28;20030;-88
2023/03/15 07:18:19;;;;;;;0.40;0.40;;;;;;;3.65;100.00;100296.72;4960649;28;20030;-87
2023/03/15 07:20:45;;;;;;;0.40;0.40;;;;;;;3.71;100.00;100301.47;4994140;28;20046;-86
2023/03/15 07:23:10;;;;;;;0.40;0.40;;;;;;;3.74;100.00;100289.72;4992374;28;20370;-87
2023/03/15 07:25:39;;;;;;;0.40;0.40;;;;;;;3.81;100.00;100287.31;4993763;28;20042;-85
2023/03/15 07:28:04;;;;;;;0.40;0.40;;;;;;;3.88;100.00;100289.25;4992389;28;20473;-86
2023/03/15 07:30:30;;;;;;;0.40;0.40;;;;;;;3.91;100.00;100278.31;4992745;28;20031;-86
2023/03/15 07:32:56;;;;;;;0.40;0.40;;;;;;;3.92;100.00;100274.69;4976196;28;20030;-85
2023/03/15 07:35:22;;;;;;;0.40;0.40;;;;;;;4.06;100.00;100280.53;4992628;28;20038;-86
2023/03/15 07:37:48;;;;;;;0.40;0.40;;;;;;;3.99;100.00;100258.13;4976465;28;20089;-86
2023/03/15 07:40:14;;;;;;;0.40;0.40;;;;;;;4.15;100.00;100271.66;4994366;28;20034;-87
2023/03/15 07:42:42;;;;;;;0.40;0.40;;;;;;;4.21;100.00;100273.75;4977598;28;20124;-85
2023/03/15 07:45:09;;;;;;;0.40;0.40;;;;;;;4.23;100.00;100261.09;4963415;28;20034;-84
2023/03/15 07:47:35;;;;;;;0.40;0.40;;;;;;;4.25;100.00;100253.81;4993619;28;20026;-83
2023/03/15 07:50:02;;;;;;;0.40;0.40;;;;;;;4.36;100.00;100266.94;5011035;28;20030;-84
2023/03/15 07:52:28;;;;;;;0.40;0.40;;;;;;;4.40;100.00;100268.31;4974802;28;20084;-83
2023/03/15 07:54:54;;;;;;;0.45;0.45;;;;;;;4.46;100.00;100256.25;5004440;28;20420;-86
2023/03/15 07:57:19;;;;;;;0.30;0.30;;;;;;;4.41;100.00;100248.69;4996476;28;20023;-84
2023/03/15 07:59:45;;;;;;;0.40;0.40;;;;;;;4.54;100.00;100252.84;4986154;28;20049;-83
2023/03/15 08:02:14;;;;;;;0.40;0.40;;;;;;;4.58;100.00;100251.56;4988063;28;20147;-89
2023/03/15 08:04:40;;;;;;;0.40;0.40;;;;;;;4.63;100.00;100243.94;4963859;28;20476;-85
2023/03/15 08:07:06;;;;;;;0.40;0.40;;;;;;;4.63;100.00;100239.47;4995532;28;20053;-84
2023/03/15 08:09:33;;;;;;;0.40;0.40;;;;;;;4.72;100.00;100240.38;4979242;28;20473;-88
2023/03/15 08:11:59;;;;;;;0.40;0.40;;;;;;;4.77;100.00;100242.59;4995579;28;20435;-83
2023/03/15 08:14:25;;;;;;;0.40;0.40;;;;;;;4.81;100.00;100242.13;4963362;28;20041;-87
2023/03/15 08:16:51;;;;;;;0.40;0.40;;;;;;;4.87;100.00;100245.19;4995833;28;20381;-89
2023/03/15 08:19:17;;;;;;;0.50;0.50;;;;;;;4.84;100.00;100231.19;4995781;28;20030;-84
2023/03/15 08:21:44;;;;;;;0.50;0.50;;;;;;;4.87;100.00;100227.41;4996138;28;20034;-84
2023/03/15 08:24:11;;;;;;;0.40;0.40;;;;;;;4.89;100.00;100213.91;4995498;28;20046;-88
2023/03/15 08:26:36;;;;;;;0.40;0.40;;;;;;;4.93;100.00;100209.97;4962965;28;20140;-86
2023/03/15 08:29:02;;;;;;;0.40;0.40;;;;;;;5.00;100.00;100211.88;4995280;28;20462;-85
2023/03/15 08:31:29;;;;;;;0.40;0.40;;;;;;;5.06;100.00;100207.75;4996559;28;20083;-86
2023/03/15 08:33:55;;;;;;;0.40;0.40;;;;;;;5.07;100.00;100196.91;4978927;28;20030;-84
2023/03/15 08:36:21;;;;;;;0.50;0.50;;;;;;;5.17;100.00;100202.16;4979600;28;20061;-83
2023/03/15 08:38:46;;;;;;;0.50;0.50;;;;;;;5.17;100.00;100193.34;4980317;28;20124;-86
2023/03/15 08:41:12;;;;;;;0.40;0.40;;;;;;;5.25;100.00;100194.22;4995767;28;20069;-86
2023/03/15 08:43:38;;;;;;;0.40;0.40;;;;;;;5.35;100.00;100198.66;4994685;28;20030;-85
2023/03/15 08:46:03;;;;;;;0.40;0.40;;;;;;;5.41;100.00;100185.50;4995010;28;20030;-85
2023/03/15 08:48:30;;;;;;;0.40;0.40;;;;;;;5.46;100.00;100190.38;4994864;28;20513;-88
2023/03/15 08:51:08;;;;;;;0.45;0.45;;;;;;;5.54;100.00;100185.09;4994875;28;20031;-87
2023/03/15 08:53:34;;;;;;;0.40;0.40;;;;;;;5.59;100.00;100180.13;4995172;28;20030;-84
2023/03/15 08:56:00;;;;;;;0.40;0.40;;;;;;;5.61;100.00;100183.50;4961925;28;20042;-83
2023/03/15 08:58:25;;;;;;;0.40;0.40;;;;;;;5.66;100.00;100175.00;4962721;28;20030;-88
2023/03/15 09:00:51;;;;;;;0.40;0.40;;;;;;;5.68;100.00;100173.84;4978638;28;20031;-84
2023/03/15 09:03:18;;;;;;;0.40;0.40;;;;;;;5.77;100.00;100177.41;4994475;28;20396;-85
2023/03/15 09:05:44;;;;;;;0.40;0.40;;;;;;;5.81;100.00;100164.56;4978356;28;20388;-87
2023/03/15 09:08:10;;;;;;;0.40;0.40;;;;;;;5.87;100.00;100162.09;4962628;28;20034;-86
2023/03/15 09:10:35;;;;;;;0.40;0.40;;;;;;;5.91;100.00;100158.13;4994549;28;20027;-86
2023/03/15 09:13:01;;;;;;;0.40;0.40;;;;;;;6.00;100.00;100166.19;4978263;28;20034;-86
2023/03/15 09:15:27;;;;;;;0.40;0.40;;;;;;;6.06;100.00;100149.53;4978240;28;20039;-87
2023/03/15 09:17:52;;;;;;;0.50;0.50;;;;;;;6.11;100.00;100144.53;4993941;28;20034;-88
2023/03/15 09:20:21;;;;;;;0.40;0.40;;;;;;;6.16;100.00;100155.56;4995108;28;20026;-85
2023/03/15 09:22:56;;;;;;;0.50;0.50;;;;;;;6.21;100.00;100141.75;4994075;28;20047;-83
2023/03/15 09:25:23;;;;;;;0.50;0.50;;;;;;;6.25;100.00;100140.44;4961923;28;20038;-88
2023/03/15 09:27:50;;;;;;;0.40;0.40;;;;;;;6.24;100.00;100128.06;4945434;28;20473;-86
2023/03/15 09:30:19;;;;;;;0.40;0.40;;;;;;;6.18;100.00;100094.03;4977153;28;20034;-81
2023/03/15 09:32:45;;;;;;;0.40;0.40;;;;;;;6.16;100.00;100096.84;4994764;28;20515;-81
2023/03/15 09:35:16;;;;;;;0.50;0.50;;;;;;;6.28;100.00;100103.53;4978018;28;20030;-81
2023/03/15 09:37:42;;;;;;;0.40;0.40;;;;;;;6.32;100.00;100098.69;4977377;28;20393;-82
2023/03/15 09:40:30;;;;;;;0.40;0.40;;;;;;;6.36;100.00;100100.06;4977877;28;20037;-81
2023/03/15 09:43:10;;;;;;;0.40;0.40;;;;;;;6.44;100.00;100091.22;4977853;28;20110;-80
2023/03/15 09:45:54;;;;;;;0.50;0.50;;;;;;;6.55;100.00;100097.06;4977849;28;20042;-80
2023/03/15 09:48:27;;;;;;;0.40;0.40;;;;;;;6.64;100.00;100083.72;4977319;28;20026;-80
2023/03/15 09:51:20;;;;;;;0.40;0.40;;;;;;;6.75;100.00;100076.22;4995004;28;20034;-81
2023/03/15 09:53:55;;;;;;;;;;;;;;;6.89;100.00;100077.38;4995523;28;20539;-81
2023/03/15 09:56:29;;;;;;;0.50;0.50;;;;;;;6.88;100.00;100057.00;4977364;28;19964;-79
2023/03/15 09:58:57;;;;;;;0.50;0.50;;;;;;;6.90;100.00;100049.63;4993651;28;20038;-81
2023/03/15 10:01:41;;;;;;;0.40;0.40;;;;;;;6.95;100.00;100052.63;4977381;28;20062;-82
2023/03/15 10:04:27;;;;;;;0.40;0.40;;;;;;;7.01;100.00;100041.28;4992798;28;20038;-86
2023/03/15 10:06:56;;;;;;;0.45;0.45;;;;;;;7.12;100.00;100044.56;4992440;28;20042;-84
2023/03/15 10:09:25;;;;;;;0.50;0.50;;;;;;;7.20;100.00;100036.56;4960536;28;20061;-85
2023/03/15 10:12:10;;;;;;;0.50;0.50;;;;;;;7.27;100.00;100029.50;4993052;28;20065;-85
2023/03/15 10:14:59;;;;;;;0.50;0.50;;;;;;;7.32;100.00;100027.13;4976297;28;20463;-82
2023/03/15 10:17:46;;;;;;;0.40;0.40;;;;;;;7.42;100.00;100024.25;4992178;28;20485;-82
2023/03/15 10:20:17;;;;;;;0.55;0.55;;;;;;;7.51;100.00;100011.69;4993277;28;20066;-80
2023/03/15 10:22:54;;;;;;;4.13;1.05;;;;;;;7.64;100.00;100015.47;4993165;28;20042;-80
2023/03/15 10:25:30;;;;;;;0.50;0.50;;;;;;;7.67;100.00;100000.91;4976763;28;20076;-80
2023/03/15 10:27:59;;;;;;;0.40;0.40;;;;;;;7.86;100.00;100011.19;4976840;28;20046;-80
2023/03/15 10:30:28;;;;;;;0.40;0.40;;;;;;;7.92;100.00;100009.63;4992426;28;20038;-79
2023/03/15 10:33:14;;;;;;;0.40;0.40;;;;;;;7.98;100.00;100011.59;4976001;28;20034;-81
2023/03/15 10:35:43;;;;;;;0.40;0.40;;;;;;;7.93;100.00;100000.56;4960955;28;20022;-81
2023/03/15 10:38:20;;;;;;;0.30;0.30;;;;;;;7.78;100.00;100003.19;4960317;28;20042;-83
2023/03/15 10:40:54;;;;;;;0.40;0.40;;;;;;;7.67;100.00;99990.19;4977607;28;20058;-81
2023/03/15 10:43:20;;;;;;;0.40;0.40;;;;;;;7.64;100.00;99996.72;4976855;28;20493;-80
2023/03/15 10:46:10;;;;;;;0.40;0.40;;;;;;;7.69;100.00;99982.81;4976215;28;20149;-81
2023/03/15 10:49:00;;;;;;;0.40;0.40;;;;;;;7.71;100.00;99978.13;4960833;28;20039;-81
2023/03/15 10:51:36;;;;;;;0.50;0.50;;;;;;;7.69;100.00;99972.13;4986675;28;20045;-80
2023/03/15 10:54:34;;;;;;;0.40;0.40;;;;;;;7.62;100.00;99958.63;4976500;28;20038;-80
2023/03/15 10:57:18;;;;;;;0.45;0.45;;;;;;;7.64;100.00;99964.63;4934124;28;20117;-80
2023/03/15 10:59:53;;;;;;;;;;;;;;;7.71;100.00;99964.75;4961400;28;20037;-81
2023/03/15 11:02:24;;;;;;;0.40;0.40;;;;;;;7.74;100.00;99955.53;4960468;28;20001;-80
2023/03/15 11:05:00;;;;;;;0.40;0.40;;;;;;;7.81;100.00;99965.38;4976468;28;20480;-80
2023/03/15 11:07:26;;;;;;;0.40;0.40;;;;;;;7.81;100.00;99937.78;4976838;28;20046;-80
2023/03/15 11:09:53;;;;;;;0.40;0.40;;;;;;;7.85;100.00;99942.56;4976600;28;20038;-80
2023/03/15 11:12:30;;;;;;;0.30;0.30;;;;;;;7.91;100.00;99944.56;4960378;28;20432;-82
2023/03/15 11:15:04;;;;;;;0.40;0.40;;;;;;;7.93;100.00;99931.81;4960698;28;20529;-81
2023/03/15 11:17:32;;;;;;;0.43;0.43;;;;;;;7.81;100.00;99895.78;4960599;28;20088;-81
2023/03/15 11:20:15;;;;;;;0.40;0.40;;;;;;;8.01;100.00;99932.75;4961568;28;20053;-82
2023/03/15 11:22:41;;;;;;;0.47;0.47;;;;;;;8.10;100.00;99924.50;4996400;28;20468;-81
2023/03/15 11:25:16;;;;;;;0.40;0.40;;;;;;;8.11;100.00;99928.00;4964075;28;20786;-82
2023/03/15 11:27:50;;;;;;;0.40;0.40;;;;;;;8.18;100.00;99934.31;4980238;28;20042;-81
2023/03/15 11:30:17;;;;;;;0.40;0.40;;;;;;;8.24;100.00;99928.22;4996072;28;20069;-82